Kaharoa — ZM7552 — position and weather

sailwx.info

Track history (hours):
 
Tides and Currents Weather Stations Pressure Air Temp Water Temp Dewpoint Dewpoint Depression Visibility Wind Speed Wind Dir Waves Ship Positions

Oceanographic research ship Kaharoa (New Zealand)

Detailed information on ship capabilities available from University of Delaware's Ocean Information Center.

Last reported at 2018-Dec-02 17:38 UTC. Time now 2018-Dec-12 23:58 UTC.
Position S 41°12' E 173°17'.
Warning: this ship's position is 10 days out of date.

Length 28 m; draft 3.5 m.

Type: Fishing. MMSI: 512063000.

Date/timePositionNaut miles runAvg speedWind from/ knotsBaromVisibWave heightAir tempDewpointWater temp
2018-Dec-02 17:38S 41°12' E 173°17'15 8.9
2018-Dec-02 16:00S 41°01' E 173°29'510.3
2018-Dec-02 15:29S 40°57' E 173°34'510.3
2018-Dec-02 14:59S 40°53' E 173°38'510.6
2018-Dec-02 14:29S 40°49' E 173°43'810.7
2018-Dec-02 13:43S 40°43' E 173°50'310.6
2018-Dec-02 13:27S 40°41' E 173°53'510.5
2018-Dec-02 13:01S 40°39' E 173°58'5 8.9
2018-Dec-02 12:30S 40°40' E 174°04'5 9.8
2018-Dec-02 12:00S 40°44' E 174°08'5 9.4
2018-Dec-02 11:31S 40°48' E 174°11'4 8.9
2018-Dec-02 11:01S 40°52' E 174°15'4 8.7
2018-Dec-02 10:30S 40°55' E 174°18'4 8.3
2018-Dec-02 10:01S 40°58' E 174°22'4 8.4
2018-Dec-02 09:31S 41°01' E 174°26'4 7.6
2018-Dec-02 09:01S 41°04' E 174°28'4 7.6
2018-Dec-02 08:31S 41°08' E 174°30'4 7.8
2018-Dec-02 08:01S 41°12' E 174°32'4 8.4
2018-Dec-02 07:30S 41°15' E 174°34'3 6.6
2018-Dec-02 07:01S 41°19' E 174°35'3 6.6
2018-Dec-02 06:31S 41°22' E 174°37'4 8.0
2018-Dec-02 06:01S 41°23' E 174°42'510.2
2018-Dec-02 05:30S 41°23' E 174°49'5 9.2
2018-Dec-02 04:55S 41°17' E 174°50'3 0.3
2018-Dec-01 19:00S 41°16' E 174°47'8 6.3
2018-Dec-01 17:43S 41°24' E 174°49'1 4.2
2018-Dec-01 17:30S 41°24' E 174°48'2 3.7
2018-Dec-01 17:00S 41°24' E 174°46'2 4.3
2018-Dec-01 16:31S 41°24' E 174°43'2 3.7
2018-Dec-01 16:00S 41°23' E 174°40'2 3.3
2018-Dec-01 15:30S 41°23' E 174°38'1 2.6
2018-Dec-01 15:01S 41°23' E 174°37'2 3.4
2018-Dec-01 14:31S 41°22' E 174°35'2 3.9
2018-Dec-01 14:00S 41°20' E 174°34'2 4.3
2018-Dec-01 13:31S 41°18' E 174°34'2 3.4
2018-Dec-01 13:01S 41°16' E 174°34'1 2.7
2018-Dec-01 12:31S 41°15' E 174°35'1 2.8
2018-Dec-01 12:01S 41°14' E 174°36'2 3.6
2018-Dec-01 11:31S 41°12' E 174°37'2 4.3
2018-Dec-01 11:01S 41°10' E 174°38'2 5.0
2018-Dec-01 10:31S 41°08' E 174°39'4 7.2
2018-Dec-01 10:01S 41°05' E 174°41'3 6.7
2018-Dec-01 09:30S 41°02' E 174°44'3 5.7
2018-Dec-01 09:01S 40°59' E 174°45'3 5.7
2018-Dec-01 08:30S 40°57' E 174°47'3 5.9
2018-Dec-01 08:01S 40°54' E 174°49'3 5.7
2018-Dec-01 07:31S 40°52' E 174°50'3 5.7
2018-Dec-01 07:00S 40°49' E 174°52'3 5.6
2018-Dec-01 06:31S 40°47' E 174°54'3 5.3
2018-Dec-01 06:00S 40°44' E 174°55'2 4.9
2018-Dec-01 05:31S 40°42' E 174°56'2 4.5
2018-Dec-01 05:01S 40°40' E 174°57'3 5.5
2018-Dec-01 04:30S 40°37' E 174°58'3 6.8
2018-Dec-01 04:01S 40°34' E 174°58'21 3.8
2018-Nov-30 22:36S 40°18' E 174°40'1 3.5
2018-Nov-30 22:19S 40°18' E 174°39'1 3.7
2018-Nov-30 22:00S 40°18' E 174°37'2 3.4
2018-Nov-30 21:31S 40°18' E 174°35'2 3.3
2018-Nov-30 21:01S 40°18' E 174°33'2 3.6
2018-Nov-30 20:31S 40°18' E 174°31'2 3.3
2018-Nov-30 20:00S 40°17' E 174°28'2 3.4
2018-Nov-30 19:31S 40°17' E 174°26'2 3.4
2018-Nov-30 19:01S 40°17' E 174°24'2 3.4
2018-Nov-30 18:30S 40°17' E 174°22'2 1.9
2018-Nov-30 17:19S 40°16' E 174°24'0 0.9
2018-Nov-30 17:01S 40°16' E 174°25'1 1.6
2018-Nov-30 16:28S 40°16' E 174°24'10 3.7
2018-Nov-30 13:39S 40°09' E 174°34'0 2.3
2018-Nov-30 13:29S 40°09' E 174°33'1 2.6
2018-Nov-30 12:56S 40°10' E 174°32'1 2.5
2018-Nov-30 12:28S 40°11' E 174°31'1 2.3
2018-Nov-30 11:56S 40°12' E 174°30'1 2.2
2018-Nov-30 11:28S 40°13' E 174°29'1 2.3
2018-Nov-30 11:00S 40°13' E 174°28'2 2.3
2018-Nov-30 09:55S 40°15' E 174°26'2 2.6
2018-Nov-30 09:17S 40°16' E 174°24'1 3.2
2018-Nov-30 09:00S 40°17' E 174°23'2 4.1
2018-Nov-30 08:26S 40°17' E 174°20'5 5.5
2018-Nov-30 07:33S 40°14' E 174°25'2 4.9
2018-Nov-30 07:09S 40°15' E 174°23'1 6.7
2018-Nov-30 06:56S 40°16' E 174°22'2 3.6
2018-Nov-30 06:18S 40°18' E 174°23'2 6.5
2018-Nov-30 06:00S 40°17' E 174°22'4 6.7
2018-Nov-30 05:23S 40°14' E 174°18'2 6.5
2018-Nov-30 05:00S 40°12' E 174°15'3 6.1
2018-Nov-30 04:27S 40°10' E 174°12'3 6.0
2018-Nov-30 03:58S 40°08' E 174°09'3 5.9
2018-Nov-30 03:31S 40°06' E 174°06'3 5.2
2018-Nov-30 03:00S 40°05' E 174°03'0 0.7
2018-Nov-30 02:31S 40°05' E 174°03'2 3.5
2018-Nov-30 02:01S 40°07' E 174°04'2 3.2
2018-Nov-30 01:31S 40°05' E 174°03'4 7.2
2018-Nov-30 01:01S 40°02' E 174°01'87 2.0
2018-Nov-28 05:00S 38°36' E 174°18'90 3.8 080 / 101001.6 5.4 21.515.719.1
2018-Nov-27 05:00S 37°06' E 174°24'   160 / 20996.4 5.4 18.517.018.7
Track history (hours):
 
Tides and Currents Weather Stations Pressure Air Temp Water Temp Dewpoint Dewpoint Depression Visibility Wind Speed Wind Dir Waves Ship Positions

Oceanographic research ship Kaharoa (New Zealand)

Detailed information on ship capabilities available from University of Delaware's Ocean Information Center.

Last reported at 2018-Dec-02 17:38 UTC. Time now 2018-Dec-12 23:58 UTC.
Position S 41°12' E 173°17'.
Warning: this ship's position is 10 days out of date.

Length 28 m; draft 3.5 m.

Type: Fishing. MMSI: 512063000.

Date/timePositionNaut miles runAvg speedWind from/ knotsBaromVisibWave heightAir tempDewpointWater temp
2018-Dec-02 17:38S 41°12' E 173°17'15 8.9
2018-Dec-02 16:00S 41°01' E 173°29'510.3
2018-Dec-02 15:29S 40°57' E 173°34'510.3
2018-Dec-02 14:59S 40°53' E 173°38'510.6
2018-Dec-02 14:29S 40°49' E 173°43'810.7
2018-Dec-02 13:43S 40°43' E 173°50'310.6
2018-Dec-02 13:27S 40°41' E 173°53'510.5
2018-Dec-02 13:01S 40°39' E 173°58'5 8.9
2018-Dec-02 12:30S 40°40' E 174°04'5 9.8
2018-Dec-02 12:00S 40°44' E 174°08'5 9.4
2018-Dec-02 11:31S 40°48' E 174°11'4 8.9
2018-Dec-02 11:01S 40°52' E 174°15'4 8.7
2018-Dec-02 10:30S 40°55' E 174°18'4 8.3
2018-Dec-02 10:01S 40°58' E 174°22'4 8.4
2018-Dec-02 09:31S 41°01' E 174°26'4 7.6
2018-Dec-02 09:01S 41°04' E 174°28'4 7.6
2018-Dec-02 08:31S 41°08' E 174°30'4 7.8
2018-Dec-02 08:01S 41°12' E 174°32'4 8.4
2018-Dec-02 07:30S 41°15' E 174°34'3 6.6
2018-Dec-02 07:01S 41°19' E 174°35'3 6.6
2018-Dec-02 06:31S 41°22' E 174°37'4 8.0
2018-Dec-02 06:01S 41°23' E 174°42'510.2
2018-Dec-02 05:30S 41°23' E 174°49'5 9.2
2018-Dec-02 04:55S 41°17' E 174°50'3 0.3
2018-Dec-01 19:00S 41°16' E 174°47'8 6.3
2018-Dec-01 17:43S 41°24' E 174°49'1 4.2
2018-Dec-01 17:30S 41°24' E 174°48'2 3.7
2018-Dec-01 17:00S 41°24' E 174°46'2 4.3
2018-Dec-01 16:31S 41°24' E 174°43'2 3.7
2018-Dec-01 16:00S 41°23' E 174°40'2 3.3
2018-Dec-01 15:30S 41°23' E 174°38'1 2.6
2018-Dec-01 15:01S 41°23' E 174°37'2 3.4
2018-Dec-01 14:31S 41°22' E 174°35'2 3.9
2018-Dec-01 14:00S 41°20' E 174°34'2 4.3
2018-Dec-01 13:31S 41°18' E 174°34'2 3.4
2018-Dec-01 13:01S 41°16' E 174°34'1 2.7
2018-Dec-01 12:31S 41°15' E 174°35'1 2.8
2018-Dec-01 12:01S 41°14' E 174°36'2 3.6
2018-Dec-01 11:31S 41°12' E 174°37'2 4.3
2018-Dec-01 11:01S 41°10' E 174°38'2 5.0
2018-Dec-01 10:31S 41°08' E 174°39'4 7.2
2018-Dec-01 10:01S 41°05' E 174°41'3 6.7
2018-Dec-01 09:30S 41°02' E 174°44'3 5.7
2018-Dec-01 09:01S 40°59' E 174°45'3 5.7
2018-Dec-01 08:30S 40°57' E 174°47'3 5.9
2018-Dec-01 08:01S 40°54' E 174°49'3 5.7
2018-Dec-01 07:31S 40°52' E 174°50'3 5.7
2018-Dec-01 07:00S 40°49' E 174°52'3 5.6
2018-Dec-01 06:31S 40°47' E 174°54'3 5.3
2018-Dec-01 06:00S 40°44' E 174°55'2 4.9
2018-Dec-01 05:31S 40°42' E 174°56'2 4.5
2018-Dec-01 05:01S 40°40' E 174°57'3 5.5
2018-Dec-01 04:30S 40°37' E 174°58'3 6.8
2018-Dec-01 04:01S 40°34' E 174°58'21 3.8
2018-Nov-30 22:36S 40°18' E 174°40'1 3.5
2018-Nov-30 22:19S 40°18' E 174°39'1 3.7
2018-Nov-30 22:00S 40°18' E 174°37'2 3.4
2018-Nov-30 21:31S 40°18' E 174°35'2 3.3
2018-Nov-30 21:01S 40°18' E 174°33'2 3.6
2018-Nov-30 20:31S 40°18' E 174°31'2 3.3
2018-Nov-30 20:00S 40°17' E 174°28'2 3.4
2018-Nov-30 19:31S 40°17' E 174°26'2 3.4
2018-Nov-30 19:01S 40°17' E 174°24'2 3.4
2018-Nov-30 18:30S 40°17' E 174°22'2 1.9
2018-Nov-30 17:19S 40°16' E 174°24'0 0.9
2018-Nov-30 17:01S 40°16' E 174°25'1 1.6
2018-Nov-30 16:28S 40°16' E 174°24'10 3.7
2018-Nov-30 13:39S 40°09' E 174°34'0 2.3
2018-Nov-30 13:29S 40°09' E 174°33'1 2.6
2018-Nov-30 12:56S 40°10' E 174°32'1 2.5
2018-Nov-30 12:28S 40°11' E 174°31'1 2.3
2018-Nov-30 11:56S 40°12' E 174°30'1 2.2
2018-Nov-30 11:28S 40°13' E 174°29'1 2.3
2018-Nov-30 11:00S 40°13' E 174°28'2 2.3
2018-Nov-30 09:55S 40°15' E 174°26'2 2.6
2018-Nov-30 09:17S 40°16' E 174°24'1 3.2
2018-Nov-30 09:00S 40°17' E 174°23'2 4.1
2018-Nov-30 08:26S 40°17' E 174°20'5 5.5
2018-Nov-30 07:33S 40°14' E 174°25'2 4.9
2018-Nov-30 07:09S 40°15' E 174°23'1 6.7
2018-Nov-30 06:56S 40°16' E 174°22'2 3.6
2018-Nov-30 06:18S 40°18' E 174°23'2 6.5
2018-Nov-30 06:00S 40°17' E 174°22'4 6.7
2018-Nov-30 05:23S 40°14' E 174°18'2 6.5
2018-Nov-30 05:00S 40°12' E 174°15'3 6.1
2018-Nov-30 04:27S 40°10' E 174°12'3 6.0
2018-Nov-30 03:58S 40°08' E 174°09'3 5.9
2018-Nov-30 03:31S 40°06' E 174°06'3 5.2
2018-Nov-30 03:00S 40°05' E 174°03'0 0.7
2018-Nov-30 02:31S 40°05' E 174°03'2 3.5
2018-Nov-30 02:01S 40°07' E 174°04'2 3.2
2018-Nov-30 01:31S 40°05' E 174°03'4 7.2
2018-Nov-30 01:01S 40°02' E 174°01'87 2.0
2018-Nov-28 05:00S 38°36' E 174°18'90 3.8 080 / 101001.6 5.4 21.515.719.1
2018-Nov-27 05:00S 37°06' E 174°24'   160 / 20996.4 5.4 18.517.018.7

Dump ship's entire track history